Bath, Illinois
Current Conditions -  °F | °C
As of 1:35 AM on Wednesday 22 Oct 2014 (Local Time) from KIJX Reporting Station
Clear Clear  
Wind Chill: 36°   Ceiling: Unl
Heat Index: 40°   Visibility: 10mi
Dew Point: 38°   Wind: 7mph
Humidity: 92%   Direction: 90°E
Pressure: 30.24"   Gusts: NA
Location:  40.19°N, 90.14°W
Report Text: KIJX 220635Z AUTO 09006KT 10SM CLR 05/03 A3024 RMK AO2 T00460034
Loading
Personal Weather Stations






























Interactive Weather Map
Tropical Storm Tracking
New forecast layout! Learn more

10-Day Weather Forecast

Advertisements
Track Severe Weather on mobile